createdAt,value
2022-11-28T00:01:36.631Z,3.07
2022-11-28T00:04:05.427Z,3.37
2022-11-28T00:06:33.996Z,3.00
2022-11-28T00:09:02.525Z,3.20
2022-11-28T00:11:31.932Z,3.00
2022-11-28T00:14:00.312Z,3.03
2022-11-28T00:16:28.802Z,3.53
2022-11-28T00:18:57.280Z,3.40
2022-11-28T00:21:25.348Z,3.10
2022-11-28T00:23:54.029Z,3.67
2022-11-28T00:26:23.868Z,3.17
2022-11-28T00:28:53.564Z,3.07
2022-11-28T00:31:23.632Z,3.27
2022-11-28T00:33:52.000Z,3.00
2022-11-28T00:36:20.768Z,3.30
2022-11-28T00:38:49.130Z,3.10
2022-11-28T00:41:18.365Z,2.93
2022-11-28T00:43:47.607Z,3.27
2022-11-28T00:46:18.247Z,3.17
2022-11-28T00:48:46.681Z,2.90
2022-11-28T00:51:16.006Z,3.17
2022-11-28T00:53:45.019Z,3.23
2022-11-28T00:56:14.789Z,3.57
2022-11-28T00:58:43.391Z,3.87
2022-11-28T01:01:12.580Z,3.50
2022-11-28T01:03:42.681Z,4.00
2022-11-28T01:06:11.792Z,3.30
2022-11-28T01:08:40.248Z,3.77
2022-11-28T01:11:15.041Z,3.43
2022-11-28T01:13:43.425Z,4.03
2022-11-28T01:16:12.639Z,3.23
2022-11-28T01:18:42.668Z,3.87
2022-11-28T01:21:11.000Z,3.00
2022-11-28T01:23:39.638Z,3.60
2022-11-28T01:26:10.156Z,3.03
2022-11-28T01:28:38.797Z,3.50
2022-11-28T01:31:08.577Z,3.70
2022-11-28T01:33:37.512Z,3.50
2022-11-28T01:36:07.908Z,3.60
2022-11-28T01:38:37.062Z,3.10
2022-11-28T01:41:05.631Z,3.53
2022-11-28T01:43:34.273Z,3.50
2022-11-28T01:46:03.469Z,3.33
2022-11-28T01:48:34.344Z,3.30
2022-11-28T01:51:04.975Z,3.47
2022-11-28T01:53:37.450Z,3.10
2022-11-28T01:56:08.452Z,3.00
2022-11-28T01:58:37.814Z,3.33
2022-11-28T02:01:06.420Z,2.93
2022-11-28T02:03:36.602Z,2.83
2022-11-28T02:06:05.017Z,2.93
2022-11-28T02:08:35.821Z,2.87
2022-11-28T02:11:22.791Z,3.77
2022-11-28T02:13:55.224Z,2.87
2022-11-28T02:16:31.735Z,3.37
2022-11-28T02:19:14.936Z,2.87
2022-11-28T02:21:52.442Z,3.47
2022-11-28T02:24:39.995Z,2.63
2022-11-28T02:27:13.777Z,2.63
2022-11-28T02:30:12.381Z,2.70
2022-11-28T02:32:57.413Z,3.13
2022-11-28T02:35:32.391Z,3.00
2022-11-28T02:38:04.633Z,3.07
2022-11-28T02:40:38.546Z,3.47
2022-11-28T02:43:11.573Z,2.97
2022-11-28T02:45:47.868Z,3.57
2022-11-28T02:48:21.971Z,3.47
2022-11-28T02:50:58.641Z,3.20
2022-11-28T02:53:29.300Z,3.47
2022-11-28T02:55:58.914Z,2.97
2022-11-28T02:58:27.340Z,3.57
2022-11-28T03:00:56.415Z,3.10
2022-11-28T03:03:36.750Z,3.20
2022-11-28T03:06:11.630Z,3.27
2022-11-28T03:08:47.312Z,3.23
2022-11-28T03:11:21.586Z,3.00
2022-11-28T03:13:54.885Z,3.53
2022-11-28T03:16:28.672Z,3.50
2022-11-28T03:19:03.022Z,3.60
2022-11-28T03:21:37.726Z,3.43
2022-11-28T03:24:08.466Z,3.13
2022-11-28T03:26:42.112Z,3.37
2022-11-28T03:29:15.921Z,3.40
2022-11-28T03:31:45.336Z,3.37
2022-11-28T03:34:18.512Z,3.30
2022-11-28T03:36:49.110Z,3.63
2022-11-28T03:39:19.750Z,3.50
2022-11-28T03:41:51.507Z,3.67
2022-11-28T03:44:21.321Z,3.43
2022-11-28T03:46:50.757Z,3.63
2022-11-28T03:49:23.916Z,3.90
2022-11-28T03:51:55.049Z,3.80
2022-11-28T03:54:26.895Z,3.90
2022-11-28T03:56:59.167Z,3.60
2022-11-28T03:59:28.312Z,3.70
2022-11-28T04:02:04.865Z,3.53
2022-11-28T04:04:42.490Z,3.53
2022-11-28T04:07:17.189Z,3.67
2022-11-28T04:09:49.269Z,3.70
2022-11-28T04:12:21.665Z,4.80
2022-11-28T04:14:53.287Z,5.13
2022-11-28T04:17:25.091Z,4.23
2022-11-28T04:19:57.064Z,3.73
2022-11-28T04:22:26.448Z,3.90
2022-11-28T04:24:56.011Z,3.37
2022-11-28T04:27:28.766Z,3.87
2022-11-28T04:29:58.934Z,3.50
2022-11-28T04:32:27.827Z,3.83
2022-11-28T04:34:59.685Z,4.17
2022-11-28T04:37:29.372Z,8.10
2022-11-28T04:39:58.197Z,4.53
2022-11-28T04:42:28.551Z,3.57
2022-11-28T04:44:59.514Z,3.80
2022-11-28T04:47:28.144Z,3.83
2022-11-28T04:49:57.932Z,4.43
2022-11-28T04:52:31.032Z,3.83
2022-11-28T04:55:02.476Z,4.00
2022-11-28T04:57:35.902Z,3.73
2022-11-28T05:00:07.165Z,4.00
2022-11-28T05:02:36.326Z,3.43
2022-11-28T05:05:11.163Z,4.43
2022-11-28T05:07:39.644Z,2.90
2022-11-28T05:10:09.034Z,3.90
2022-11-28T05:12:37.478Z,3.77
2022-11-28T05:15:06.755Z,4.10
2022-11-28T05:17:40.484Z,3.97
2022-11-28T05:20:12.315Z,4.00
2022-11-28T05:22:40.712Z,4.70
2022-11-28T05:25:09.354Z,4.00
2022-11-28T05:27:37.832Z,4.93
2022-11-28T05:30:07.302Z,4.10
2022-11-28T05:32:36.477Z,4.27
2022-11-28T05:35:05.291Z,4.50
2022-11-28T05:37:35.657Z,3.93
2022-11-28T05:40:04.048Z,3.73
2022-11-28T05:42:34.339Z,3.33
2022-11-28T05:45:03.187Z,3.70
2022-11-28T05:47:32.058Z,3.70
2022-11-28T05:50:00.484Z,4.07
2022-11-28T05:52:32.224Z,3.83
2022-11-28T05:55:02.603Z,3.63
2022-11-28T05:57:31.995Z,4.10
2022-11-28T06:00:00.403Z,3.70
2022-11-28T06:02:28.844Z,3.50
2022-11-28T06:04:57.305Z,4.17
2022-11-28T06:07:25.829Z,4.13
2022-11-28T06:09:54.226Z,3.73
2022-11-28T06:12:23.980Z,4.27
2022-11-28T06:14:53.322Z,3.57
2022-11-28T06:17:21.822Z,4.67
2022-11-28T06:19:50.185Z,3.90
2022-11-28T06:22:18.814Z,3.63
2022-11-28T06:24:47.248Z,4.13
2022-11-28T06:27:15.751Z,4.47
2022-11-28T06:29:45.267Z,4.90
2022-11-28T06:32:16.539Z,4.20
2022-11-28T06:34:48.912Z,4.07
2022-11-28T06:37:17.225Z,4.00
2022-11-28T06:39:45.731Z,4.37
2022-11-28T06:42:15.140Z,4.37
2022-11-28T06:44:45.052Z,4.60
2022-11-28T06:47:13.487Z,4.47
2022-11-28T06:49:42.138Z,4.60
2022-11-28T06:52:10.772Z,5.50
2022-11-28T06:54:39.132Z,4.20
2022-11-28T06:57:07.457Z,4.17
2022-11-28T06:59:35.806Z,4.53
2022-11-28T07:02:08.008Z,4.63
2022-11-28T07:04:36.567Z,4.60
2022-11-28T07:07:05.006Z,4.23
2022-11-28T07:09:33.454Z,4.03
2022-11-28T07:12:01.834Z,4.10
2022-11-28T07:14:30.218Z,4.27
2022-11-28T07:16:58.330Z,4.57
2022-11-28T07:19:28.344Z,5.00
2022-11-28T07:21:56.785Z,4.77
2022-11-28T07:24:25.125Z,4.20
2022-11-28T07:26:53.128Z,4.57
2022-11-28T07:29:21.580Z,4.60
2022-11-28T07:31:49.971Z,4.43
2022-11-28T07:34:18.611Z,4.60
2022-11-28T07:36:48.323Z,5.07
2022-11-28T07:39:18.546Z,4.50
2022-11-28T07:41:46.976Z,4.37
2022-11-28T07:44:17.875Z,4.67
2022-11-28T07:46:46.721Z,4.27
2022-11-28T07:49:15.386Z,4.10
2022-11-28T07:51:44.074Z,4.37
2022-11-28T07:54:13.759Z,3.77
2022-11-28T07:57:12.121Z,3.83
2022-11-28T07:59:30.478Z,4.10
2022-11-28T08:01:58.616Z,4.20
2022-11-28T08:04:27.013Z,4.30
2022-11-28T08:06:57.031Z,4.17
2022-11-28T08:09:26.744Z,3.87
2022-11-28T08:11:55.172Z,3.70
2022-11-28T08:14:23.619Z,3.40
2022-11-28T08:16:52.448Z,3.47
2022-11-28T08:19:24.564Z,4.10
2022-11-28T08:21:53.238Z,4.00
2022-11-28T08:24:21.549Z,4.90
2022-11-28T08:26:51.262Z,3.97
2022-11-28T08:29:19.631Z,4.33
2022-11-28T08:31:48.232Z,3.37
2022-11-28T08:34:16.531Z,4.30
2022-11-28T08:36:45.056Z,4.40
2022-11-28T08:39:28.799Z,4.33
2022-11-28T08:41:59.671Z,4.03
2022-11-28T08:44:30.379Z,4.97
2022-11-28T08:46:59.050Z,4.60
2022-11-28T08:49:27.359Z,4.13
2022-11-28T08:51:55.742Z,4.03
2022-11-28T08:54:24.085Z,4.73
2022-11-28T08:56:52.381Z,4.27
2022-11-28T08:59:22.196Z,4.50
2022-11-28T09:01:50.563Z,4.80
2022-11-28T09:04:18.664Z,5.00
2022-11-28T09:06:47.036Z,4.63
2022-11-28T09:09:15.454Z,4.57
2022-11-28T09:11:43.883Z,4.67
2022-11-28T09:14:12.314Z,5.03
2022-11-28T09:16:42.142Z,4.47
2022-11-28T09:19:10.831Z,4.57
2022-11-28T09:21:40.660Z,5.23
2022-11-28T09:24:09.926Z,4.57
2022-11-28T09:26:38.255Z,5.03
2022-11-28T09:29:06.466Z,4.03
2022-11-28T09:31:34.782Z,4.97
2022-11-28T09:34:04.867Z,5.00
2022-11-28T09:36:33.900Z,4.73
2022-11-28T09:39:02.319Z,5.33
2022-11-28T09:41:52.156Z,4.70
2022-11-28T09:44:23.060Z,4.30
2022-11-28T09:46:53.378Z,4.93
2022-11-28T09:49:27.117Z,3.83
2022-11-28T09:52:00.420Z,4.23
2022-11-28T09:54:34.265Z,4.33
2022-11-28T09:57:04.104Z,4.30
2022-11-28T09:59:32.764Z,4.30
2022-11-28T10:02:16.528Z,5.17
2022-11-28T10:04:49.740Z,4.20
2022-11-28T10:07:27.216Z,4.73
2022-11-28T10:09:59.260Z,5.10
2022-11-28T10:12:32.393Z,4.93
2022-11-28T10:15:36.772Z,5.47
2022-11-28T10:18:12.101Z,5.33
2022-11-28T10:20:43.659Z,7.53
2022-11-28T10:23:17.411Z,5.83
2022-11-28T10:25:50.565Z,6.53
2022-11-28T10:28:23.300Z,5.57
2022-11-28T10:30:58.690Z,5.80
2022-11-28T10:33:30.708Z,5.60
2022-11-28T10:36:01.484Z,6.00
2022-11-28T10:38:30.775Z,6.27
2022-11-28T10:41:01.829Z,5.70
2022-11-28T10:43:39.405Z,5.90
2022-11-28T10:46:15.710Z,8.53
2022-11-28T10:48:47.559Z,7.70
2022-11-28T10:51:30.357Z,6.27
2022-11-28T10:54:02.526Z,8.73
2022-11-28T10:56:34.862Z,9.23
2022-11-28T10:59:07.354Z,8.50
2022-11-28T11:01:42.099Z,9.03
2022-11-28T11:04:17.546Z,7.80
2022-11-28T11:07:08.228Z,9.30
2022-11-28T11:09:38.421Z,9.13
2022-11-28T11:12:09.766Z,8.37
2022-11-28T11:14:40.494Z,9.87
2022-11-28T11:17:08.617Z,7.57
2022-11-28T11:19:38.505Z,6.37
2022-11-28T11:22:09.234Z,7.67
2022-11-28T11:24:37.669Z,6.30
2022-11-28T11:27:09.489Z,6.77
2022-11-28T11:29:40.229Z,6.10
2022-11-28T11:32:18.514Z,5.67
2022-11-28T11:34:47.388Z,5.87
2022-11-28T11:37:30.192Z,6.30
2022-11-28T11:39:58.524Z,5.43
2022-11-28T11:42:27.804Z,5.60
2022-11-28T11:44:56.192Z,7.37
2022-11-28T11:47:42.548Z,8.93
2022-11-28T11:50:17.289Z,11.63
2022-11-28T11:53:01.498Z,8.33
2022-11-28T11:55:31.442Z,6.23
2022-11-28T11:58:05.502Z,25.43
2022-11-28T12:00:36.763Z,7.13
2022-11-28T12:03:08.665Z,5.90
2022-11-28T12:06:12.886Z,6.73
2022-11-28T12:08:41.176Z,6.13
2022-11-28T12:11:13.716Z,6.07
2022-11-28T12:13:41.959Z,6.60
2022-11-28T12:16:14.528Z,5.87
2022-11-28T12:18:49.925Z,7.10
2022-11-28T12:21:23.291Z,6.67
2022-11-28T12:24:06.727Z,5.50
2022-11-28T12:26:41.323Z,6.27
2022-11-28T12:29:22.857Z,5.23
2022-11-28T12:32:00.392Z,6.60
2022-11-28T12:34:34.312Z,6.60
2022-11-28T12:37:06.443Z,6.63
2022-11-28T12:39:41.977Z,7.10
2022-11-28T12:42:20.022Z,6.27
2022-11-28T12:44:55.909Z,6.77
2022-11-28T12:47:30.925Z,6.30
2022-11-28T12:50:02.163Z,6.37
2022-11-28T12:52:37.234Z,5.77
2022-11-28T12:55:23.126Z,6.10
2022-11-28T12:57:55.461Z,5.97
2022-11-28T13:00:25.686Z,6.90
2022-11-28T13:03:05.761Z,5.47
2022-11-28T13:05:47.789Z,7.03
2022-11-28T13:08:46.467Z,6.27
2022-11-28T13:11:22.357Z,6.07
2022-11-28T13:13:53.569Z,5.90
2022-11-28T13:16:27.557Z,7.00
2022-11-28T13:19:01.589Z,6.60
2022-11-28T13:21:34.156Z,8.03
2022-11-28T13:24:07.203Z,6.50
2022-11-28T13:26:52.261Z,5.93
2022-11-28T13:29:27.248Z,6.47
2022-11-28T13:32:02.640Z,6.50
2022-11-28T13:34:32.348Z,6.33
2022-11-28T13:39:53.074Z,6.23
2022-11-28T13:42:59.944Z,6.93
2022-11-28T13:45:26.563Z,6.57
2022-11-28T13:48:00.231Z,7.13
2022-11-28T13:50:42.417Z,6.70
2022-11-28T13:53:24.654Z,7.07
2022-11-28T13:55:53.675Z,7.57
2022-11-28T13:58:25.981Z,7.30
2022-11-28T14:01:15.483Z,6.43
2022-11-28T14:03:48.481Z,6.87
2022-11-28T14:06:19.590Z,5.73
2022-11-28T14:08:50.116Z,6.80
2022-11-28T14:11:42.766Z,6.63
2022-11-28T14:14:20.933Z,6.70
2022-11-28T14:16:57.906Z,6.60
2022-11-28T14:19:38.027Z,5.80
2022-11-28T14:22:20.289Z,6.73
2022-11-28T14:24:55.721Z,7.57
2022-11-28T14:27:26.385Z,12.27
2022-11-28T14:29:57.335Z,8.47
2022-11-28T14:32:31.827Z,8.33
2022-11-28T14:35:00.259Z,12.27
2022-11-28T14:37:37.150Z,11.37
2022-11-28T14:40:28.690Z,7.87
2022-11-28T14:43:28.209Z,8.07
2022-11-28T14:46:11.441Z,9.33
2022-11-28T14:48:42.556Z,7.07
2022-11-28T14:51:10.988Z,11.40
2022-11-28T14:53:45.551Z,7.13
2022-11-28T14:56:28.154Z,7.40
2022-11-28T14:59:02.304Z,11.10
2022-11-28T15:01:49.697Z,8.90
2022-11-28T15:04:47.904Z,9.90
2022-11-28T15:07:22.987Z,14.70
2022-11-28T15:10:05.723Z,10.80
2022-11-28T15:12:47.496Z,8.07
2022-11-28T15:15:17.777Z,12.00
2022-11-28T15:17:48.531Z,11.27
2022-11-28T15:20:23.113Z,13.57
2022-11-28T15:22:51.123Z,13.97
2022-11-28T15:25:20.359Z,10.40
2022-11-28T15:27:48.894Z,11.77
2022-11-28T15:30:18.058Z,7.33
2022-11-28T15:32:46.639Z,6.90
2022-11-28T15:35:18.901Z,7.13
2022-11-28T15:37:50.544Z,8.87
2022-11-28T15:40:21.610Z,8.33
2022-11-28T15:42:51.262Z,11.33
2022-11-28T15:45:23.560Z,8.73
2022-11-28T15:47:52.485Z,8.30
2022-11-28T15:50:25.081Z,9.37
2022-11-28T15:53:00.492Z,8.80
2022-11-28T15:55:31.260Z,9.57
2022-11-28T15:58:12.805Z,13.87
2022-11-28T16:00:45.055Z,9.07
2022-11-28T16:03:17.097Z,9.17
2022-11-28T16:05:47.471Z,9.87
2022-11-28T16:08:23.712Z,12.60
2022-11-28T16:10:52.051Z,10.50
2022-11-28T16:13:24.807Z,16.07
2022-11-28T16:15:56.030Z,7.40
2022-11-28T16:18:24.963Z,6.80
2022-11-28T16:20:55.423Z,5.47
2022-11-28T16:23:29.125Z,5.67
2022-11-28T16:26:01.737Z,6.07
2022-11-28T16:28:33.166Z,6.43
2022-11-28T16:31:01.530Z,6.13
2022-11-28T16:33:36.876Z,5.40
2022-11-28T16:36:18.873Z,6.40
2022-11-28T16:38:48.273Z,9.60
2022-11-28T16:41:18.301Z,7.00
2022-11-28T16:43:51.037Z,6.93
2022-11-28T16:46:22.792Z,12.10
2022-11-28T16:48:55.648Z,13.73
2022-11-28T16:51:41.410Z,12.83
2022-11-28T16:54:28.419Z,8.03
2022-11-28T16:56:58.819Z,7.07
2022-11-28T16:59:27.223Z,6.17
2022-11-28T17:01:55.939Z,7.33
2022-11-28T17:04:26.614Z,7.23
2022-11-28T17:06:57.555Z,6.93
2022-11-28T17:09:25.859Z,6.77
2022-11-28T17:11:57.732Z,7.73
2022-11-28T17:14:26.041Z,6.63
2022-11-28T17:16:54.484Z,7.17
2022-11-28T17:19:22.951Z,7.37
2022-11-28T17:21:52.897Z,6.93
2022-11-28T17:24:25.042Z,6.03
2022-11-28T17:26:54.564Z,7.17
2022-11-28T17:29:25.229Z,6.83
2022-11-28T17:31:57.136Z,6.53
2022-11-28T17:34:26.105Z,6.70
2022-11-28T17:36:54.657Z,7.33
2022-11-28T17:39:24.702Z,6.60
2022-11-28T17:41:53.183Z,7.00
2022-11-28T17:44:23.446Z,6.40
2022-11-28T17:46:52.815Z,7.00
2022-11-28T17:49:21.169Z,8.03
2022-11-28T17:51:49.539Z,7.37
2022-11-28T17:54:19.432Z,6.90
2022-11-28T17:56:49.626Z,6.23
2022-11-28T17:59:19.321Z,6.50
2022-11-28T18:01:48.120Z,6.50
2022-11-28T18:04:16.573Z,6.03
2022-11-28T18:06:45.227Z,6.57
2022-11-28T18:09:14.452Z,7.07
2022-11-28T18:11:42.905Z,6.83
2022-11-28T18:14:12.496Z,6.97
2022-11-28T18:16:43.835Z,7.30
2022-11-28T18:19:12.395Z,6.83
2022-11-28T18:21:40.808Z,7.07
2022-11-28T18:24:09.465Z,6.83
2022-11-28T18:26:37.895Z,6.97
2022-11-28T18:29:07.103Z,7.57
2022-11-28T18:31:37.325Z,6.70
2022-11-28T18:34:07.271Z,6.87
2022-11-28T18:36:37.844Z,7.30
2022-11-28T18:39:07.501Z,6.13
2022-11-28T18:41:35.960Z,6.73
2022-11-28T18:44:05.731Z,6.07
2022-11-28T18:46:35.530Z,5.73
2022-11-28T18:49:04.963Z,6.70
2022-11-28T18:51:34.589Z,6.70
2022-11-28T18:54:04.624Z,7.47
2022-11-28T18:56:32.999Z,6.33
2022-11-28T18:59:01.118Z,6.77
2022-11-28T19:01:31.261Z,7.07
2022-11-28T19:04:01.938Z,7.87
2022-11-28T19:06:31.723Z,7.23
2022-11-28T19:09:01.929Z,7.13
2022-11-28T19:11:30.553Z,7.93
2022-11-28T19:13:59.482Z,6.67
2022-11-28T19:16:29.413Z,7.43
2022-11-28T19:18:58.100Z,7.43
2022-11-28T19:21:28.325Z,8.13
2022-11-28T19:23:59.951Z,7.30
2022-11-28T19:26:30.072Z,7.23
2022-11-28T19:28:59.845Z,7.73
2022-11-28T19:31:30.048Z,8.37
2022-11-28T19:34:01.886Z,7.00
2022-11-28T19:36:31.791Z,7.93
2022-11-28T19:39:01.731Z,7.57
2022-11-28T19:41:30.406Z,8.50
2022-11-28T19:43:58.990Z,7.60
2022-11-28T19:46:31.975Z,7.03
2022-11-28T19:49:03.583Z,7.17
2022-11-28T19:51:32.085Z,6.67
2022-11-28T19:54:03.847Z,6.87
2022-11-28T19:56:32.669Z,6.47
2022-11-28T19:59:01.541Z,6.40
2022-11-28T20:01:30.002Z,8.00
2022-11-28T20:03:59.717Z,8.67
2022-11-28T20:06:30.091Z,8.67
2022-11-28T20:09:02.216Z,6.43
2022-11-28T20:11:31.816Z,7.77
2022-11-28T20:14:01.600Z,7.43
2022-11-28T20:16:31.065Z,7.27
2022-11-28T20:19:00.418Z,6.90
2022-11-28T20:21:29.032Z,6.53
2022-11-28T20:23:59.584Z,6.47
2022-11-28T20:26:29.989Z,6.63
2022-11-28T20:28:58.529Z,6.80
2022-11-28T20:31:30.704Z,7.37
2022-11-28T20:33:59.428Z,6.13
2022-11-28T20:36:30.258Z,7.10
2022-11-28T20:38:59.287Z,6.77
2022-11-28T20:41:29.804Z,7.13
2022-11-28T20:43:59.698Z,6.10
2022-11-28T20:46:30.325Z,7.47
2022-11-28T20:48:59.930Z,6.73
2022-11-28T20:51:29.986Z,6.37
2022-11-28T20:53:59.544Z,6.83
2022-11-28T20:56:31.914Z,6.37
2022-11-28T20:59:00.626Z,7.10
2022-11-28T21:01:30.753Z,6.70
2022-11-28T21:03:59.147Z,6.67
2022-11-28T21:06:27.561Z,7.30
2022-11-28T21:08:56.100Z,7.40
2022-11-28T21:11:50.593Z,7.80
2022-11-28T21:14:16.215Z,6.67
2022-11-28T21:16:44.582Z,7.10
2022-11-28T21:19:13.068Z,6.80
2022-11-28T21:21:42.813Z,6.97
2022-11-28T21:24:14.240Z,7.70
2022-11-28T21:26:48.057Z,6.87
2022-11-28T21:29:22.870Z,7.10
2022-11-28T21:31:51.275Z,6.63
2022-11-28T21:34:19.854Z,6.50
2022-11-28T21:36:48.303Z,6.63
2022-11-28T21:39:18.773Z,7.00
2022-11-28T21:41:47.297Z,7.27
2022-11-28T21:44:15.620Z,7.60
2022-11-28T21:46:45.050Z,7.30
2022-11-28T21:49:13.274Z,7.10
2022-11-28T21:51:41.998Z,7.30
2022-11-28T21:54:11.008Z,7.33
2022-11-28T21:56:39.526Z,7.67
2022-11-28T21:59:07.926Z,6.17
2022-11-28T22:01:36.231Z,6.43
2022-11-28T22:04:06.036Z,7.60
2022-11-28T22:06:34.623Z,7.50
2022-11-28T22:09:09.034Z,7.43
2022-11-28T22:11:38.374Z,7.43
2022-11-28T22:14:06.776Z,7.17
2022-11-28T22:16:35.108Z,8.10
2022-11-28T22:19:04.094Z,7.23
2022-11-28T22:24:22.235Z,6.90
2022-11-28T22:26:50.670Z,7.40
2022-11-28T22:29:19.152Z,8.17
2022-11-28T22:31:47.603Z,7.90
2022-11-28T22:34:16.043Z,7.73
2022-11-28T22:36:45.453Z,8.20
2022-11-28T22:39:13.830Z,10.33
2022-11-28T22:41:42.279Z,8.53
2022-11-28T22:44:12.222Z,7.60
2022-11-28T22:46:40.674Z,7.63
2022-11-28T22:49:09.163Z,8.33
2022-11-28T22:51:37.714Z,7.60
2022-11-28T22:54:07.535Z,8.03
2022-11-28T22:56:36.202Z,7.60
2022-11-28T22:59:05.088Z,7.13
2022-11-28T23:01:35.217Z,7.77
2022-11-28T23:04:03.740Z,8.17
2022-11-28T23:06:33.895Z,7.47
2022-11-28T23:09:05.055Z,8.10
2022-11-28T23:11:36.770Z,7.77
2022-11-28T23:14:05.288Z,7.63
2022-11-28T23:16:34.646Z,7.60
2022-11-28T23:19:04.542Z,7.60
2022-11-28T23:21:35.641Z,8.03
2022-11-28T23:24:04.018Z,8.07
2022-11-28T23:26:32.767Z,6.97
2022-11-28T23:29:04.232Z,8.23
2022-11-28T23:31:33.227Z,7.03
2022-11-28T23:34:02.202Z,8.30
2022-11-28T23:36:32.325Z,8.30
2022-11-28T23:39:04.996Z,8.10
2022-11-28T23:41:33.389Z,8.17
2022-11-28T23:44:03.176Z,7.83
2022-11-28T23:46:31.538Z,9.37
2022-11-28T23:48:59.934Z,7.53
2022-11-28T23:51:28.314Z,7.07
2022-11-28T23:53:56.767Z,8.13
2022-11-28T23:56:26.646Z,7.57
2022-11-28T23:58:55.879Z,8.13
